createdAt,value
2018-03-20T00:01:37.684Z,95322.02
2018-03-20T00:04:05.209Z,95324.83
2018-03-20T00:06:32.780Z,95326.53
2018-03-20T00:09:00.381Z,95320.29
2018-03-20T00:11:28.007Z,95317.39
2018-03-20T00:13:55.620Z,95322.33
2018-03-20T00:16:23.183Z,95318.06
2018-03-20T00:18:50.754Z,95314.27
2018-03-20T00:21:18.398Z,95315.91
2018-03-20T00:23:45.954Z,95314.97
2018-03-20T00:26:13.510Z,95315.65
2018-03-20T00:28:41.137Z,95322.77
2018-03-20T00:31:08.702Z,95314.98
2018-03-20T00:33:36.273Z,95312.47
2018-03-20T00:36:04.246Z,95317.89
2018-03-20T00:38:31.891Z,95319.55
2018-03-20T00:40:59.548Z,95318.25
2018-03-20T00:43:27.173Z,95320.48
2018-03-20T00:45:55.097Z,95317.17
2018-03-20T00:48:22.670Z,95317.05
2018-03-20T00:50:50.250Z,95317.88
2018-03-20T00:53:17.823Z,95317.89
2018-03-20T00:55:45.383Z,95317.58
2018-03-20T00:58:12.972Z,95308.94
2018-03-20T01:00:40.548Z,95311.41
2018-03-20T01:03:08.130Z,95313.42
2018-03-20T01:05:35.725Z,95315.39
2018-03-20T01:08:03.302Z,95305.04
2018-03-20T01:10:30.861Z,95310.70
2018-03-20T01:12:58.452Z,95313.20
2018-03-20T01:15:26.003Z,95311.22
2018-03-20T01:17:53.576Z,95311.64
2018-03-20T01:20:21.163Z,95311.88
2018-03-20T01:22:48.715Z,95296.84
2018-03-20T01:25:16.288Z,95300.06
2018-03-20T01:27:43.875Z,95297.58
2018-03-20T01:30:11.468Z,95298.97
2018-03-20T01:32:39.033Z,95300.87
2018-03-20T01:35:06.594Z,95293.00
2018-03-20T01:37:34.195Z,95290.46
2018-03-20T01:40:01.765Z,95291.30
2018-03-20T01:42:29.316Z,95286.48
2018-03-20T01:44:56.867Z,95286.03
2018-03-20T01:47:24.425Z,95283.10
2018-03-20T01:49:52.081Z,95283.56
2018-03-20T01:52:25.585Z,95286.78
2018-03-20T01:54:53.138Z,95286.42
2018-03-20T01:57:20.682Z,95282.78
2018-03-20T01:59:48.254Z,95279.34
2018-03-20T02:02:15.814Z,95279.65
2018-03-20T02:04:43.375Z,95278.05
2018-03-20T02:07:10.967Z,95278.94
2018-03-20T02:09:38.565Z,95277.98
2018-03-20T02:12:06.160Z,95287.09
2018-03-20T02:14:33.779Z,95282.03
2018-03-20T02:17:01.331Z,95277.05
2018-03-20T02:19:28.917Z,95276.75
2018-03-20T02:21:56.547Z,95272.69
2018-03-20T02:24:24.125Z,95271.75
2018-03-20T02:26:51.692Z,95278.48
2018-03-20T02:29:19.269Z,95273.84
2018-03-20T02:31:46.862Z,95275.90
2018-03-20T02:34:14.437Z,95273.83
2018-03-20T02:36:42.001Z,95269.25
2018-03-20T02:39:09.557Z,95275.90
2018-03-20T02:41:37.135Z,95276.16
2018-03-20T02:44:04.735Z,95275.37
2018-03-20T02:46:34.189Z,95273.36
2018-03-20T02:49:01.715Z,95276.04
2018-03-20T02:51:29.943Z,95274.80
2018-03-20T02:53:57.850Z,95271.94
2018-03-20T02:56:25.835Z,95273.53
2018-03-20T02:58:53.505Z,95273.59
2018-03-20T03:01:21.085Z,95279.32
2018-03-20T03:03:48.658Z,95272.16
2018-03-20T03:06:16.222Z,95272.59
2018-03-20T03:08:43.794Z,95271.65
2018-03-20T03:11:11.414Z,95272.11
2018-03-20T03:13:38.993Z,95275.04
2018-03-20T03:16:06.560Z,95274.98
2018-03-20T03:18:34.145Z,95277.24
2018-03-20T03:21:01.701Z,95283.74
2018-03-20T03:23:29.286Z,95278.42
2018-03-20T03:25:56.854Z,95280.05
2018-03-20T03:28:24.444Z,95283.06
2018-03-20T03:30:52.037Z,95279.74
2018-03-20T03:33:19.629Z,95283.06
2018-03-20T03:35:47.185Z,95289.44
2018-03-20T03:38:14.754Z,95283.73
2018-03-20T03:40:42.330Z,95286.34
2018-03-20T03:43:09.908Z,95288.26
2018-03-20T03:45:37.458Z,95285.64
2018-03-20T03:48:05.040Z,95288.73
2018-03-20T03:50:32.626Z,95285.92
2018-03-20T03:53:00.214Z,95287.05
2018-03-20T03:55:27.804Z,95288.97
2018-03-20T03:57:55.437Z,95289.78
2018-03-20T04:00:23.008Z,95287.72
2018-03-20T04:02:50.584Z,95289.85
2018-03-20T04:05:18.169Z,95284.69
2018-03-20T04:07:45.740Z,95292.77
2018-03-20T04:10:13.279Z,95288.24
2018-03-20T04:12:40.826Z,95283.20
2018-03-20T04:15:08.403Z,95291.47
2018-03-20T04:17:35.958Z,95293.67
2018-03-20T04:20:03.556Z,95295.34
2018-03-20T04:22:31.120Z,95297.53
2018-03-20T04:24:58.715Z,95297.18
2018-03-20T04:27:26.294Z,95302.27
2018-03-20T04:29:53.844Z,95304.25
2018-03-20T04:32:21.404Z,95306.95
2018-03-20T04:34:50.657Z,95309.91
2018-03-20T04:37:18.233Z,95307.94
2018-03-20T04:39:45.749Z,95311.75
2018-03-20T04:42:13.249Z,95311.63
2018-03-20T04:44:40.762Z,95302.48
2018-03-20T04:47:08.291Z,95308.36
2018-03-20T04:49:35.823Z,95308.84
2018-03-20T04:52:03.393Z,95313.30
2018-03-20T04:54:30.960Z,95304.63
2018-03-20T04:56:58.553Z,95309.86
2018-03-20T04:59:26.135Z,95311.05
2018-03-20T05:01:53.712Z,95306.11
2018-03-20T05:04:21.270Z,95309.74
2018-03-20T05:06:48.855Z,95304.02
2018-03-20T05:09:16.408Z,95312.05
2018-03-20T05:11:43.970Z,95316.06
2018-03-20T05:14:11.565Z,95321.42
2018-03-20T05:16:39.130Z,95322.17
2018-03-20T05:19:21.603Z,95320.76
2018-03-20T05:21:54.835Z,95325.34
2018-03-20T05:24:22.415Z,95333.30
2018-03-20T05:26:49.999Z,95329.40
2018-03-20T05:29:17.682Z,95342.14
2018-03-20T05:31:45.262Z,95338.64
2018-03-20T05:34:13.049Z,95344.09
2018-03-20T05:36:40.634Z,95339.77
2018-03-20T05:39:08.208Z,95343.92
2018-03-20T05:41:35.767Z,95348.15
2018-03-20T05:44:03.377Z,95350.13
2018-03-20T05:46:49.627Z,95355.53
2018-03-20T05:52:21.810Z,95354.59
2018-03-20T05:54:49.358Z,95355.32
2018-03-20T05:57:16.874Z,95359.55
2018-03-20T05:59:44.408Z,95362.28
2018-03-20T06:02:11.903Z,95364.91
2018-03-20T06:04:39.399Z,95367.28
2018-03-20T06:07:06.926Z,95362.41
2018-03-20T06:09:34.442Z,95366.45
2018-03-20T06:12:01.935Z,95365.44
2018-03-20T06:14:29.455Z,95366.09
2018-03-20T06:16:56.990Z,95372.23
2018-03-20T06:19:24.494Z,95383.32
2018-03-20T06:21:52.022Z,95382.59
2018-03-20T06:24:19.519Z,95387.38
2018-03-20T06:26:47.048Z,95386.12
2018-03-20T06:29:14.606Z,95384.33
2018-03-20T06:31:42.157Z,95387.97
2018-03-20T06:34:09.740Z,95386.29
2018-03-20T06:36:37.339Z,95391.28
2018-03-20T06:39:04.915Z,95387.59
2018-03-20T06:41:32.500Z,95392.77
2018-03-20T06:44:00.121Z,95398.82
2018-03-20T06:46:27.901Z,95392.73
2018-03-20T06:48:55.455Z,95397.02
2018-03-20T06:51:23.010Z,95397.63
2018-03-20T06:53:50.541Z,95396.20
2018-03-20T06:56:18.130Z,95403.27
2018-03-20T06:58:45.691Z,95408.82
2018-03-20T07:01:13.247Z,95410.36
2018-03-20T07:03:40.804Z,95410.02
2018-03-20T07:06:08.379Z,95419.45
2018-03-20T07:08:35.965Z,95418.91
2018-03-20T07:11:03.536Z,95418.28
2018-03-20T07:13:31.146Z,95415.63
2018-03-20T07:15:58.715Z,95428.50
2018-03-20T07:18:26.274Z,95426.01
2018-03-20T07:20:53.843Z,95427.66
2018-03-20T07:23:21.461Z,95429.35
2018-03-20T07:25:49.033Z,95426.42
2018-03-20T07:28:16.612Z,95424.55
2018-03-20T07:30:44.192Z,95427.77
2018-03-20T07:33:11.753Z,95422.44
2018-03-20T07:35:39.354Z,95421.47
2018-03-20T07:38:06.934Z,95426.25
2018-03-20T07:40:34.456Z,95429.21
2018-03-20T07:43:02.052Z,95429.23
2018-03-20T07:45:29.632Z,95432.12
2018-03-20T07:47:57.181Z,95437.33
2018-03-20T07:50:24.750Z,95439.58
2018-03-20T07:52:52.337Z,95440.25
2018-03-20T07:55:19.904Z,95443.97
2018-03-20T07:57:47.447Z,95446.19
2018-03-20T08:00:15.075Z,95449.20
2018-03-20T08:02:42.646Z,95453.14
2018-03-20T08:05:10.213Z,95456.16
2018-03-20T08:07:37.785Z,95454.20
2018-03-20T08:10:05.399Z,95450.88
2018-03-20T08:12:32.961Z,95460.71
2018-03-20T08:15:00.540Z,95453.96
2018-03-20T08:17:28.097Z,95456.97
2018-03-20T08:19:55.647Z,95464.56
2018-03-20T08:22:23.215Z,95457.38
2018-03-20T08:24:50.775Z,95465.17
2018-03-20T08:27:18.347Z,95469.03
2018-03-20T08:29:45.921Z,95470.68
2018-03-20T08:32:13.459Z,95471.75
2018-03-20T08:34:41.030Z,95472.41
2018-03-20T08:37:08.621Z,95477.86
2018-03-20T08:39:36.172Z,95482.75
2018-03-20T08:42:03.758Z,95484.09
2018-03-20T08:44:31.313Z,95483.73
2018-03-20T08:46:58.880Z,95484.78
2018-03-20T08:49:26.450Z,95490.28
2018-03-20T08:51:54.054Z,95485.27
2018-03-20T08:54:21.612Z,95498.19
2018-03-20T08:56:49.149Z,95492.11
2018-03-20T08:59:16.725Z,95496.44
2018-03-20T09:01:44.323Z,95493.70
2018-03-20T09:04:11.896Z,95496.09
2018-03-20T09:06:39.493Z,95496.59
2018-03-20T09:09:07.048Z,95493.06
2018-03-20T09:11:34.622Z,95496.75
2018-03-20T09:14:02.200Z,95495.06
2018-03-20T09:16:29.742Z,95500.81
2018-03-20T09:18:57.341Z,95495.36
2018-03-20T09:21:24.889Z,95495.98
2018-03-20T09:23:52.694Z,95494.58
2018-03-20T09:26:20.286Z,95500.01
2018-03-20T09:28:47.853Z,95501.52
2018-03-20T09:31:15.452Z,95506.80
2018-03-20T09:33:43.065Z,95509.75
2018-03-20T09:36:10.637Z,95515.81
2018-03-20T09:38:38.207Z,95514.55
2018-03-20T09:41:05.794Z,95518.26
2018-03-20T09:43:33.362Z,95512.51
2018-03-20T09:46:00.918Z,95516.41
2018-03-20T09:48:28.478Z,95509.00
2018-03-20T09:50:56.058Z,95515.20
2018-03-20T09:53:23.617Z,95517.45
2018-03-20T09:55:51.176Z,95514.28
2018-03-20T09:58:18.742Z,95519.52
2018-03-20T10:00:46.314Z,95517.80
2018-03-20T10:03:13.876Z,95523.42
2018-03-20T10:05:41.439Z,95529.98
2018-03-20T10:08:08.991Z,95524.88
2018-03-20T10:10:36.588Z,95539.51
2018-03-20T10:13:04.157Z,95542.86
2018-03-20T10:15:31.706Z,95528.48
2018-03-20T10:17:59.287Z,95536.52
2018-03-20T10:20:26.873Z,95533.13
2018-03-20T10:22:54.418Z,95539.75
2018-03-20T10:25:21.975Z,95536.25
2018-03-20T10:27:49.534Z,95539.63
2018-03-20T10:30:17.066Z,95543.78
2018-03-20T10:32:44.616Z,95545.25
2018-03-20T10:35:12.173Z,95544.11
2018-03-20T10:37:39.732Z,95548.95
2018-03-20T10:40:07.289Z,95543.05
2018-03-20T10:42:34.840Z,95543.36
2018-03-20T10:45:02.521Z,95543.17
2018-03-20T10:47:30.164Z,95545.65
2018-03-20T10:49:57.708Z,95540.94
2018-03-20T10:52:25.291Z,95545.42
2018-03-20T10:54:52.849Z,95543.05
2018-03-20T10:57:20.405Z,95540.89
2018-03-20T10:59:48.071Z,95546.28
2018-03-20T11:02:20.636Z,95549.02
2018-03-20T11:04:48.213Z,95544.36
2018-03-20T11:07:15.801Z,95549.14
2018-03-20T11:09:43.396Z,95549.78
2018-03-20T11:12:10.973Z,95556.43
2018-03-20T11:14:38.532Z,95550.67
2018-03-20T11:17:06.456Z,95552.75
2018-03-20T11:19:37.613Z,95555.59
2018-03-20T11:22:05.224Z,95552.44
2018-03-20T11:24:32.774Z,95551.78
2018-03-20T11:27:00.334Z,95564.81
2018-03-20T11:29:27.916Z,95563.89
2018-03-20T11:31:55.459Z,95568.56
2018-03-20T11:34:23.027Z,95571.43
2018-03-20T11:36:50.650Z,95570.28
2018-03-20T11:39:18.214Z,95574.06
2018-03-20T11:41:45.779Z,95583.67
2018-03-20T11:44:13.357Z,95584.57
2018-03-20T11:46:40.904Z,95580.23
2018-03-20T11:49:08.541Z,95587.44
2018-03-20T11:51:36.102Z,95589.88
2018-03-20T11:54:04.127Z,95588.91
2018-03-20T11:56:31.714Z,95586.80
2018-03-20T11:58:59.299Z,95592.67
2018-03-20T12:01:26.852Z,95584.50
2018-03-20T12:03:54.411Z,95588.38
2018-03-20T12:06:21.946Z,95586.36
2018-03-20T12:08:52.029Z,95594.63
2018-03-20T12:11:19.725Z,95594.75
2018-03-20T12:13:47.295Z,95595.47
2018-03-20T12:16:14.859Z,95592.59
2018-03-20T12:18:42.425Z,95597.41
2018-03-20T12:21:09.990Z,95595.55
2018-03-20T12:23:37.559Z,95593.14
2018-03-20T12:26:05.156Z,95605.61
2018-03-20T12:28:32.733Z,95606.54
2018-03-20T12:31:00.262Z,95604.75
2018-03-20T12:33:27.853Z,95599.04
2018-03-20T12:35:55.418Z,95603.73
2018-03-20T12:38:22.981Z,95604.88
2018-03-20T12:40:50.533Z,95608.14
2018-03-20T12:43:18.110Z,95603.91
2018-03-20T12:45:45.712Z,95604.17
2018-03-20T12:48:13.297Z,95607.36
2018-03-20T12:50:40.874Z,95606.03
2018-03-20T12:53:08.479Z,95614.25
2018-03-20T12:55:36.030Z,95607.80
2018-03-20T12:58:03.599Z,95617.89
2018-03-20T13:00:31.163Z,95620.71
2018-03-20T13:02:58.749Z,95632.01
2018-03-20T13:05:26.323Z,95627.05
2018-03-20T13:07:53.901Z,95628.66
2018-03-20T13:10:21.423Z,95637.63
2018-03-20T13:12:49.012Z,95638.61
2018-03-20T13:15:16.627Z,95640.91
2018-03-20T13:17:44.209Z,95640.67
2018-03-20T13:20:11.782Z,95634.74
2018-03-20T13:22:39.387Z,95641.80
2018-03-20T13:25:06.948Z,95643.63
2018-03-20T13:27:34.525Z,95645.09
2018-03-20T13:30:02.122Z,95641.02
2018-03-20T13:32:29.727Z,95640.70
2018-03-20T13:34:57.325Z,95650.85
2018-03-20T13:37:24.877Z,95644.52
2018-03-20T13:39:52.435Z,95649.08
2018-03-20T13:42:20.024Z,95649.47
2018-03-20T13:44:47.579Z,95654.79
2018-03-20T13:47:15.126Z,95650.78
2018-03-20T13:49:43.659Z,95656.16
2018-03-20T13:52:11.257Z,95659.08
2018-03-20T13:54:38.830Z,95657.41
2018-03-20T13:57:06.402Z,95666.45
2018-03-20T13:59:33.997Z,95665.51
2018-03-20T14:02:01.864Z,95672.41
2018-03-20T14:04:29.406Z,95668.52
2018-03-20T14:06:57.002Z,95673.22
2018-03-20T14:09:24.550Z,95675.80
2018-03-20T14:11:52.147Z,95669.53
2018-03-20T14:14:19.750Z,95676.36
2018-03-20T14:16:47.341Z,95676.57
2018-03-20T14:19:14.910Z,95679.03
2018-03-20T14:21:42.499Z,95681.12
2018-03-20T14:24:10.075Z,95678.36
2018-03-20T14:26:37.656Z,95687.44
2018-03-20T14:29:05.209Z,95679.15
2018-03-20T14:31:32.773Z,95684.14
2018-03-20T14:34:00.354Z,95691.53
2018-03-20T14:36:27.897Z,95694.39
2018-03-20T14:38:55.487Z,95697.39
2018-03-20T14:41:23.078Z,95702.78
2018-03-20T14:43:50.635Z,95702.45
2018-03-20T14:46:18.219Z,95700.08
2018-03-20T14:48:45.806Z,95711.58
2018-03-20T14:51:13.418Z,95708.56
2018-03-20T14:53:42.717Z,95715.08
2018-03-20T14:56:10.305Z,95714.62
2018-03-20T14:58:37.876Z,95713.89
2018-03-20T15:01:05.424Z,95722.30
2018-03-20T15:03:33.206Z,95719.43
2018-03-20T15:06:00.785Z,95720.16
2018-03-20T15:08:28.363Z,95723.89
2018-03-20T15:10:55.930Z,95732.98
2018-03-20T15:13:23.513Z,95731.23
2018-03-20T15:15:51.141Z,95737.59
2018-03-20T15:18:18.726Z,95738.55
2018-03-20T15:20:46.284Z,95732.84
2018-03-20T15:23:13.854Z,95735.89
2018-03-20T15:25:41.435Z,95745.02
2018-03-20T15:28:08.984Z,95739.38
2018-03-20T15:30:36.540Z,95743.93
2018-03-20T15:33:04.135Z,95746.41
2018-03-20T15:35:31.717Z,95755.61
2018-03-20T15:37:59.302Z,95758.31
2018-03-20T15:40:26.892Z,95759.05
2018-03-20T15:42:54.833Z,95762.05
2018-03-20T15:45:22.410Z,95767.09
2018-03-20T15:47:49.918Z,95763.98
2018-03-20T15:50:17.485Z,95770.81
2018-03-20T15:52:45.061Z,95776.82
2018-03-20T15:55:12.647Z,95773.25
2018-03-20T15:57:40.222Z,95779.00
2018-03-20T16:00:07.805Z,95783.97
2018-03-20T16:02:35.391Z,95785.87
2018-03-20T16:05:02.952Z,95790.87
2018-03-20T16:07:30.554Z,95799.00
2018-03-20T16:09:58.134Z,95796.77
2018-03-20T16:12:25.695Z,95797.75
2018-03-20T16:14:53.293Z,95801.99
2018-03-20T16:17:20.873Z,95810.41
2018-03-20T16:19:48.458Z,95809.55
2018-03-20T16:22:16.039Z,95817.39
2018-03-20T16:24:43.614Z,95819.72
2018-03-20T16:27:11.189Z,95824.98
2018-03-20T16:29:38.859Z,95827.49
2018-03-20T16:32:06.464Z,95832.66
2018-03-20T16:34:34.381Z,95837.27
2018-03-20T16:37:02.014Z,95836.42
2018-03-20T16:39:30.122Z,95842.84
2018-03-20T16:41:57.737Z,95856.33
2018-03-20T16:44:25.355Z,95857.23
2018-03-20T16:46:52.962Z,95861.36
2018-03-20T16:49:20.539Z,95862.09
2018-03-20T16:51:48.118Z,95868.32
2018-03-20T16:54:16.057Z,95868.58
2018-03-20T16:56:43.665Z,95872.61
2018-03-20T16:59:11.997Z,95877.59
2018-03-20T17:01:39.583Z,95885.20
2018-03-20T17:04:07.191Z,95885.45
2018-03-20T17:06:34.759Z,95890.55
2018-03-20T17:09:02.404Z,95894.14
2018-03-20T17:11:30.018Z,95897.73
2018-03-20T17:13:57.689Z,95906.89
2018-03-20T17:16:27.297Z,95908.32
2018-03-20T17:18:54.887Z,95913.94
2018-03-20T17:21:22.771Z,95913.46
2018-03-20T17:23:50.455Z,95923.27
2018-03-20T17:26:18.079Z,95924.11
2018-03-20T17:28:45.651Z,95927.39
2018-03-20T17:31:13.249Z,95937.34
2018-03-20T17:33:41.012Z,95940.43
2018-03-20T17:36:08.593Z,95948.86
2018-03-20T17:38:36.185Z,95952.91
2018-03-20T17:41:04.008Z,95954.20
2018-03-20T17:43:31.598Z,95955.17
2018-03-20T17:45:59.305Z,95954.80
2018-03-20T17:48:27.168Z,95960.30
2018-03-20T17:50:54.751Z,95966.16
2018-03-20T17:53:22.786Z,95970.94
2018-03-20T17:55:50.470Z,95978.00
2018-03-20T17:58:18.454Z,95982.27
2018-03-20T18:00:46.988Z,95989.77
2018-03-20T18:03:14.630Z,95986.74
2018-03-20T18:05:42.222Z,95994.70
2018-03-20T18:08:10.033Z,95996.95
2018-03-20T18:10:37.626Z,96003.98
2018-03-20T18:13:05.225Z,96007.74
2018-03-20T18:15:33.072Z,96011.03
2018-03-20T18:18:00.671Z,96017.83
2018-03-20T18:20:28.324Z,96021.54
2018-03-20T18:22:55.928Z,96030.13
2018-03-20T18:25:23.490Z,96035.73
2018-03-20T18:27:51.118Z,96038.80
2018-03-20T18:30:18.753Z,96040.48
2018-03-20T18:32:46.319Z,96050.94
2018-03-20T18:35:14.333Z,96057.25
2018-03-20T18:37:41.988Z,96065.53
2018-03-20T18:40:09.669Z,96062.45
2018-03-20T18:42:37.403Z,96070.80
2018-03-20T18:45:11.171Z,96074.34
2018-03-20T18:47:38.749Z,96089.13
2018-03-20T18:50:06.466Z,96088.34
2018-03-20T18:52:34.097Z,96089.97
2018-03-20T18:55:01.709Z,96089.55
2018-03-20T18:57:31.040Z,96096.84
2018-03-20T18:59:58.665Z,96100.66
2018-03-20T19:02:26.267Z,96098.72
2018-03-20T19:04:53.833Z,96098.55
2018-03-20T19:07:21.576Z,96102.07
2018-03-20T19:09:49.155Z,96104.72
2018-03-20T19:12:20.948Z,96113.17
2018-03-20T19:14:49.100Z,96120.59
2018-03-20T19:17:16.698Z,96122.50
2018-03-20T19:19:44.316Z,96118.73
2018-03-20T19:22:11.960Z,96130.49
2018-03-20T19:24:39.522Z,96129.66
2018-03-20T19:27:07.478Z,96131.75
2018-03-20T19:29:35.150Z,96132.90
2018-03-20T19:32:02.768Z,96143.17
2018-03-20T19:34:34.950Z,96144.69
2018-03-20T19:37:02.694Z,96143.03
2018-03-20T19:39:30.289Z,96147.16
2018-03-20T19:42:01.309Z,96151.24
2018-03-20T19:44:28.892Z,96159.65
2018-03-20T19:46:56.453Z,96155.55
2018-03-20T19:49:24.085Z,96163.88
2018-03-20T19:51:51.697Z,96167.17
2018-03-20T19:54:20.679Z,96164.38
2018-03-20T19:56:48.949Z,96164.62
2018-03-20T19:59:20.145Z,96177.53
2018-03-20T20:01:47.886Z,96183.89
2018-03-20T20:04:16.390Z,96189.54
2018-03-20T20:06:44.098Z,96191.34
2018-03-20T20:09:13.371Z,96195.09
2018-03-20T20:11:42.194Z,96197.52
2018-03-20T20:14:09.773Z,96200.95
2018-03-20T20:16:37.378Z,96209.26
2018-03-20T20:19:04.949Z,96212.94
2018-03-20T20:21:33.422Z,96208.05
2018-03-20T20:24:00.990Z,96213.98
2018-03-20T20:26:28.632Z,96217.28
2018-03-20T20:28:56.234Z,96223.63
2018-03-20T20:31:24.636Z,96223.13
2018-03-20T20:33:52.248Z,96226.52
2018-03-20T20:36:20.933Z,96227.22
2018-03-20T20:38:48.682Z,96227.77
2018-03-20T20:41:16.459Z,96233.37
2018-03-20T20:43:44.057Z,96236.55
2018-03-20T20:46:11.644Z,96233.95
2018-03-20T20:48:39.648Z,96238.50
2018-03-20T20:51:07.274Z,96239.30
2018-03-20T20:53:35.510Z,96250.46
2018-03-20T20:56:03.102Z,96247.28
2018-03-20T20:58:30.703Z,96258.66
2018-03-20T21:00:58.264Z,96260.36
2018-03-20T21:03:26.122Z,96261.32
2018-03-20T21:05:53.790Z,96261.15
2018-03-20T21:08:21.532Z,96261.45
2018-03-20T21:10:49.155Z,96263.28
2018-03-20T21:13:16.728Z,96261.19
2018-03-20T21:15:44.490Z,96259.39
2018-03-20T21:18:12.130Z,96267.33
2018-03-20T21:20:39.679Z,96264.07
2018-03-20T21:23:07.330Z,96268.50
2018-03-20T21:25:35.206Z,96271.09
2018-03-20T21:28:02.784Z,96270.77
2018-03-20T21:30:30.442Z,96275.03
2018-03-20T21:32:58.075Z,96276.63
2018-03-20T21:35:25.658Z,96276.27
2018-03-20T21:37:53.282Z,96282.44
2018-03-20T21:40:20.876Z,96286.34
2018-03-20T21:42:48.455Z,96287.68
2018-03-20T21:45:17.016Z,96287.00
2018-03-20T21:47:44.889Z,96287.95
2018-03-20T21:50:12.588Z,96290.59
2018-03-20T21:52:40.164Z,96283.53
2018-03-20T21:55:08.817Z,96293.28
2018-03-20T21:57:36.763Z,96290.47
2018-03-20T22:00:04.630Z,96255.70
2018-03-20T22:02:32.238Z,96289.26
2018-03-20T22:04:59.815Z,96292.70
2018-03-20T22:07:27.456Z,96294.88
2018-03-20T22:09:55.258Z,96294.41
2018-03-20T22:12:22.918Z,96300.02
2018-03-20T22:14:50.508Z,96309.14
2018-03-20T22:17:18.362Z,96305.93
2018-03-20T22:19:45.951Z,96303.55
2018-03-20T22:22:14.168Z,96307.66
2018-03-20T22:24:41.752Z,96311.35
2018-03-20T22:27:10.605Z,96314.75
2018-03-20T22:29:38.723Z,96314.23
2018-03-20T22:32:08.355Z,96309.89
2018-03-20T22:34:35.922Z,96313.44
2018-03-20T22:37:03.536Z,96309.51
2018-03-20T22:39:31.230Z,96309.81
2018-03-20T22:41:58.913Z,96320.08
2018-03-20T22:44:26.459Z,96321.09
2018-03-20T22:46:54.073Z,96324.84
2018-03-20T22:49:22.205Z,96324.60
2018-03-20T22:51:49.812Z,96333.03
2018-03-20T22:54:17.532Z,96332.66
2018-03-20T22:56:45.095Z,96336.08
2018-03-20T22:59:13.022Z,96334.39
2018-03-20T23:01:40.908Z,96341.91
2018-03-20T23:04:08.550Z,96341.91
2018-03-20T23:06:37.627Z,96349.83
2018-03-20T23:09:05.826Z,96348.22
2018-03-20T23:11:34.570Z,96344.49
2018-03-20T23:14:02.462Z,96350.73
2018-03-20T23:16:31.767Z,96355.31
2018-03-20T23:19:00.323Z,96360.73
2018-03-20T23:21:28.476Z,96359.13
2018-03-20T23:23:56.059Z,96355.36
2018-03-20T23:26:23.636Z,96362.06
2018-03-20T23:28:51.297Z,96364.81
2018-03-20T23:31:19.350Z,96362.27
2018-03-20T23:33:47.257Z,96363.22
2018-03-20T23:36:14.830Z,96360.77
2018-03-20T23:38:45.187Z,96368.73
2018-03-20T23:41:12.930Z,96364.11
2018-03-20T23:43:40.507Z,96370.84
2018-03-20T23:46:08.069Z,96365.44
2018-03-20T23:48:40.017Z,96364.27
2018-03-20T23:51:08.083Z,96366.34
2018-03-20T23:53:35.783Z,96370.52
2018-03-20T23:56:03.431Z,96365.89
2018-03-20T23:58:30.981Z,96363.08
